sensor_id;sensor_type;location;lat;lon;timestamp;P1;durP1;ratioP1;P2;durP2;ratioP2
48534;SDS011;34323;52.022;5.686;2023-02-23T00:01:12;75.28;;;35.17;;
48534;SDS011;34323;52.022;5.686;2023-02-23T00:03:39;71.78;;;34.22;;
48534;SDS011;34323;52.022;5.686;2023-02-23T00:06:05;74.75;;;34.28;;
48534;SDS011;34323;52.022;5.686;2023-02-23T00:08:32;73.70;;;34.95;;
48534;SDS011;34323;52.022;5.686;2023-02-23T00:11:04;70.40;;;34.70;;
48534;SDS011;34323;52.022;5.686;2023-02-23T00:13:35;73.45;;;33.38;;
48534;SDS011;34323;52.022;5.686;2023-02-23T00:16:08;71.47;;;32.95;;
48534;SDS011;34323;52.022;5.686;2023-02-23T00:18:42;67.63;;;32.58;;
48534;SDS011;34323;52.022;5.686;2023-02-23T00:21:15;64.30;;;32.47;;
48534;SDS011;34323;52.022;5.686;2023-02-23T00:23:56;68.70;;;34.67;;
48534;SDS011;34323;52.022;5.686;2023-02-23T00:26:24;68.10;;;34.80;;
48534;SDS011;34323;52.022;5.686;2023-02-23T00:28:54;72.80;;;32.67;;
48534;SDS011;34323;52.022;5.686;2023-02-23T00:31:21;68.93;;;34.55;;
48534;SDS011;34323;52.022;5.686;2023-02-23T00:33:50;65.63;;;31.45;;
48534;SDS011;34323;52.022;5.686;2023-02-23T00:36:18;68.55;;;32.90;;
48534;SDS011;34323;52.022;5.686;2023-02-23T00:38:47;75.18;;;33.40;;
48534;SDS011;34323;52.022;5.686;2023-02-23T00:41:17;67.97;;;33.20;;
48534;SDS011;34323;52.022;5.686;2023-02-23T00:43:47;71.63;;;33.25;;
48534;SDS011;34323;52.022;5.686;2023-02-23T00:46:14;73.70;;;33.28;;
48534;SDS011;34323;52.022;5.686;2023-02-23T00:48:41;69.78;;;32.72;;
48534;SDS011;34323;52.022;5.686;2023-02-23T00:51:08;71.43;;;33.13;;
48534;SDS011;34323;52.022;5.686;2023-02-23T00:53:34;68.80;;;33.03;;
48534;SDS011;34323;52.022;5.686;2023-02-23T00:55:59;67.60;;;32.25;;
48534;SDS011;34323;52.022;5.686;2023-02-23T00:58:25;67.45;;;32.50;;
48534;SDS011;34323;52.022;5.686;2023-02-23T01:00:51;65.97;;;31.98;;
48534;SDS011;34323;52.022;5.686;2023-02-23T01:03:17;72.50;;;34.13;;
48534;SDS011;34323;52.022;5.686;2023-02-23T01:05:43;65.88;;;32.22;;
48534;SDS011;34323;52.022;5.686;2023-02-23T01:08:10;63.95;;;30.73;;
48534;SDS011;34323;52.022;5.686;2023-02-23T01:10:39;68.85;;;32.47;;
48534;SDS011;34323;52.022;5.686;2023-02-23T01:13:09;67.55;;;32.85;;
48534;SDS011;34323;52.022;5.686;2023-02-23T01:15:42;69.38;;;34.03;;
48534;SDS011;34323;52.022;5.686;2023-02-23T01:18:08;67.57;;;33.35;;
48534;SDS011;34323;52.022;5.686;2023-02-23T01:20:35;62.85;;;30.90;;
48534;SDS011;34323;52.022;5.686;2023-02-23T01:23:01;63.95;;;31.88;;
48534;SDS011;34323;52.022;5.686;2023-02-23T01:25:28;68.63;;;33.03;;
48534;SDS011;34323;52.022;5.686;2023-02-23T01:27:54;73.47;;;33.17;;
48534;SDS011;34323;52.022;5.686;2023-02-23T01:30:20;71.70;;;34.22;;
48534;SDS011;34323;52.022;5.686;2023-02-23T01:32:46;70.53;;;33.80;;
48534;SDS011;34323;52.022;5.686;2023-02-23T01:35:12;73.68;;;33.00;;
48534;SDS011;34323;52.022;5.686;2023-02-23T01:37:39;76.90;;;33.28;;
48534;SDS011;34323;52.022;5.686;2023-02-23T01:40:07;69.50;;;33.88;;
48534;SDS011;34323;52.022;5.686;2023-02-23T01:42:42;69.95;;;33.28;;
48534;SDS011;34323;52.022;5.686;2023-02-23T01:45:29;71.45;;;32.17;;
48534;SDS011;34323;52.022;5.686;2023-02-23T01:47:59;64.90;;;31.33;;
48534;SDS011;34323;52.022;5.686;2023-02-23T01:50:59;69.40;;;33.05;;
48534;SDS011;34323;52.022;5.686;2023-02-23T01:53:28;73.32;;;34.42;;
48534;SDS011;34323;52.022;5.686;2023-02-23T01:55:59;74.95;;;34.03;;
48534;SDS011;34323;52.022;5.686;2023-02-23T01:58:29;72.28;;;34.33;;
48534;SDS011;34323;52.022;5.686;2023-02-23T02:00:57;73.60;;;33.47;;
48534;SDS011;34323;52.022;5.686;2023-02-23T02:03:28;76.40;;;33.90;;
48534;SDS011;34323;52.022;5.686;2023-02-23T02:06:01;71.90;;;33.92;;
48534;SDS011;34323;52.022;5.686;2023-02-23T02:08:30;69.85;;;32.90;;
48534;SDS011;34323;52.022;5.686;2023-02-23T02:10:57;73.82;;;32.55;;
48534;SDS011;34323;52.022;5.686;2023-02-23T02:13:27;65.55;;;30.98;;
48534;SDS011;34323;52.022;5.686;2023-02-23T02:16:07;68.32;;;31.77;;
48534;SDS011;34323;52.022;5.686;2023-02-23T02:18:56;70.88;;;33.08;;
48534;SDS011;34323;52.022;5.686;2023-02-23T02:25:08;68.05;;;31.55;;
48534;SDS011;34323;52.022;5.686;2023-02-23T02:31:05;65.32;;;31.10;;
48534;SDS011;34323;52.022;5.686;2023-02-23T02:34:14;72.60;;;33.08;;
48534;SDS011;34323;52.022;5.686;2023-02-23T02:39:53;66.78;;;32.72;;
48534;SDS011;34323;52.022;5.686;2023-02-23T02:42:56;69.05;;;32.17;;
48534;SDS011;34323;52.022;5.686;2023-02-23T02:45:38;66.90;;;31.38;;
48534;SDS011;34323;52.022;5.686;2023-02-23T02:51:19;67.20;;;32.67;;
48534;SDS011;34323;52.022;5.686;2023-02-23T02:54:10;64.70;;;30.73;;
48534;SDS011;34323;52.022;5.686;2023-02-23T02:56:58;64.85;;;31.83;;
48534;SDS011;34323;52.022;5.686;2023-02-23T02:59:28;66.57;;;32.55;;
48534;SDS011;34323;52.022;5.686;2023-02-23T03:02:17;71.80;;;32.80;;
48534;SDS011;34323;52.022;5.686;2023-02-23T03:05:17;66.78;;;29.30;;
48534;SDS011;34323;52.022;5.686;2023-02-23T03:08:08;66.55;;;33.10;;
48534;SDS011;34323;52.022;5.686;2023-02-23T03:11:04;68.43;;;33.38;;
48534;SDS011;34323;52.022;5.686;2023-02-23T03:16:38;60.08;;;30.88;;
48534;SDS011;34323;52.022;5.686;2023-02-23T03:19:29;78.47;;;33.42;;
48534;SDS011;34323;52.022;5.686;2023-02-23T03:22:37;63.53;;;31.87;;
48534;SDS011;34323;52.022;5.686;2023-02-23T03:25:31;65.57;;;31.35;;
48534;SDS011;34323;52.022;5.686;2023-02-23T03:28:35;69.50;;;30.40;;
48534;SDS011;34323;52.022;5.686;2023-02-23T03:31:35;63.10;;;30.73;;
48534;SDS011;34323;52.022;5.686;2023-02-23T03:34:27;65.32;;;32.45;;
48534;SDS011;34323;52.022;5.686;2023-02-23T03:37:28;71.15;;;32.10;;
48534;SDS011;34323;52.022;5.686;2023-02-23T03:40:25;69.95;;;31.85;;
48534;SDS011;34323;52.022;5.686;2023-02-23T03:43:18;68.55;;;32.75;;
48534;SDS011;34323;52.022;5.686;2023-02-23T03:46:09;69.07;;;31.40;;
48534;SDS011;34323;52.022;5.686;2023-02-23T03:48:57;63.95;;;32.05;;
48534;SDS011;34323;52.022;5.686;2023-02-23T03:51:45;69.82;;;31.02;;
48534;SDS011;34323;52.022;5.686;2023-02-23T03:54:33;68.75;;;32.67;;
48534;SDS011;34323;52.022;5.686;2023-02-23T03:57:21;64.30;;;31.98;;
48534;SDS011;34323;52.022;5.686;2023-02-23T04:00:10;69.78;;;33.35;;
48534;SDS011;34323;52.022;5.686;2023-02-23T04:02:58;70.82;;;33.55;;
48534;SDS011;34323;52.022;5.686;2023-02-23T04:05:46;66.00;;;32.13;;
48534;SDS011;34323;52.022;5.686;2023-02-23T04:08:34;69.50;;;32.88;;
48534;SDS011;34323;52.022;5.686;2023-02-23T04:15:29;68.55;;;33.20;;
48534;SDS011;34323;52.022;5.686;2023-02-23T04:17:31;68.82;;;32.28;;
48534;SDS011;34323;52.022;5.686;2023-02-23T04:19:57;70.97;;;31.58;;
48534;SDS011;34323;52.022;5.686;2023-02-23T04:22:23;71.18;;;32.10;;
48534;SDS011;34323;52.022;5.686;2023-02-23T04:24:49;75.05;;;32.33;;
48534;SDS011;34323;52.022;5.686;2023-02-23T04:27:15;78.82;;;34.97;;
48534;SDS011;34323;52.022;5.686;2023-02-23T04:29:40;68.72;;;31.63;;
48534;SDS011;34323;52.022;5.686;2023-02-23T04:32:08;65.03;;;30.67;;
48534;SDS011;34323;52.022;5.686;2023-02-23T04:34:37;65.38;;;31.08;;
48534;SDS011;34323;52.022;5.686;2023-02-23T04:37:03;66.47;;;32.50;;
48534;SDS011;34323;52.022;5.686;2023-02-23T04:39:29;66.35;;;31.67;;
48534;SDS011;34323;52.022;5.686;2023-02-23T04:41:54;65.10;;;32.17;;
48534;SDS011;34323;52.022;5.686;2023-02-23T04:44:20;65.90;;;32.65;;
48534;SDS011;34323;52.022;5.686;2023-02-23T04:46:45;72.65;;;32.92;;
48534;SDS011;34323;52.022;5.686;2023-02-23T04:49:11;66.10;;;30.60;;
48534;SDS011;34323;52.022;5.686;2023-02-23T04:51:37;69.53;;;31.92;;
48534;SDS011;34323;52.022;5.686;2023-02-23T04:54:02;76.15;;;32.38;;
48534;SDS011;34323;52.022;5.686;2023-02-23T04:56:29;67.97;;;31.15;;
48534;SDS011;34323;52.022;5.686;2023-02-23T04:58:55;63.45;;;31.98;;
48534;SDS011;34323;52.022;5.686;2023-02-23T05:01:20;63.80;;;31.73;;
48534;SDS011;34323;52.022;5.686;2023-02-23T05:03:47;63.42;;;30.23;;
48534;SDS011;34323;52.022;5.686;2023-02-23T05:06:13;65.38;;;31.10;;
48534;SDS011;34323;52.022;5.686;2023-02-23T05:08:42;64.10;;;31.63;;
48534;SDS011;34323;52.022;5.686;2023-02-23T05:11:07;65.05;;;30.70;;
48534;SDS011;34323;52.022;5.686;2023-02-23T05:13:33;60.83;;;30.15;;
48534;SDS011;34323;52.022;5.686;2023-02-23T05:15:59;64.22;;;30.98;;
48534;SDS011;34323;52.022;5.686;2023-02-23T05:18:25;66.22;;;29.83;;
48534;SDS011;34323;52.022;5.686;2023-02-23T05:20:51;57.65;;;28.77;;
48534;SDS011;34323;52.022;5.686;2023-02-23T05:23:18;63.28;;;30.20;;
48534;SDS011;34323;52.022;5.686;2023-02-23T05:25:45;66.10;;;31.23;;
48534;SDS011;34323;52.022;5.686;2023-02-23T05:28:11;66.30;;;31.08;;
48534;SDS011;34323;52.022;5.686;2023-02-23T05:30:37;55.33;;;29.05;;
48534;SDS011;34323;52.022;5.686;2023-02-23T05:33:03;61.88;;;28.67;;
48534;SDS011;34323;52.022;5.686;2023-02-23T05:35:29;62.55;;;29.33;;
48534;SDS011;34323;52.022;5.686;2023-02-23T05:37:54;61.13;;;30.17;;
48534;SDS011;34323;52.022;5.686;2023-02-23T05:40:20;63.22;;;30.95;;
48534;SDS011;34323;52.022;5.686;2023-02-23T05:42:46;62.83;;;28.58;;
48534;SDS011;34323;52.022;5.686;2023-02-23T05:45:11;71.53;;;30.88;;
48534;SDS011;34323;52.022;5.686;2023-02-23T05:47:37;73.97;;;32.95;;
48534;SDS011;34323;52.022;5.686;2023-02-23T05:50:07;65.00;;;31.40;;
48534;SDS011;34323;52.022;5.686;2023-02-23T05:52:38;70.22;;;31.30;;
48534;SDS011;34323;52.022;5.686;2023-02-23T05:55:05;65.03;;;28.80;;
48534;SDS011;34323;52.022;5.686;2023-02-23T05:57:31;63.63;;;31.05;;
48534;SDS011;34323;52.022;5.686;2023-02-23T05:59:57;74.45;;;32.33;;
48534;SDS011;34323;52.022;5.686;2023-02-23T06:02:23;73.10;;;33.35;;
48534;SDS011;34323;52.022;5.686;2023-02-23T06:04:48;63.40;;;30.42;;
48534;SDS011;34323;52.022;5.686;2023-02-23T06:07:15;74.30;;;32.90;;
48534;SDS011;34323;52.022;5.686;2023-02-23T06:09:40;61.03;;;30.20;;
48534;SDS011;34323;52.022;5.686;2023-02-23T06:12:06;70.90;;;29.80;;
48534;SDS011;34323;52.022;5.686;2023-02-23T06:14:32;68.88;;;28.73;;
48534;SDS011;34323;52.022;5.686;2023-02-23T06:16:59;68.35;;;30.65;;
48534;SDS011;34323;52.022;5.686;2023-02-23T06:19:25;67.50;;;31.02;;
48534;SDS011;34323;52.022;5.686;2023-02-23T06:21:50;74.57;;;31.08;;
48534;SDS011;34323;52.022;5.686;2023-02-23T06:24:17;67.53;;;30.30;;
48534;SDS011;34323;52.022;5.686;2023-02-23T06:26:43;64.70;;;30.27;;
48534;SDS011;34323;52.022;5.686;2023-02-23T06:29:10;63.67;;;28.65;;
48534;SDS011;34323;52.022;5.686;2023-02-23T06:31:36;65.30;;;30.15;;
48534;SDS011;34323;52.022;5.686;2023-02-23T06:34:02;70.75;;;29.88;;
48534;SDS011;34323;52.022;5.686;2023-02-23T06:36:27;70.95;;;30.52;;
48534;SDS011;34323;52.022;5.686;2023-02-23T06:38:56;69.35;;;31.30;;
48534;SDS011;34323;52.022;5.686;2023-02-23T06:41:23;63.28;;;28.55;;
48534;SDS011;34323;52.022;5.686;2023-02-23T06:43:50;64.88;;;29.38;;
48534;SDS011;34323;52.022;5.686;2023-02-23T06:46:16;68.63;;;28.55;;
48534;SDS011;34323;52.022;5.686;2023-02-23T06:48:41;64.05;;;29.38;;
48534;SDS011;34323;52.022;5.686;2023-02-23T06:51:07;65.32;;;30.13;;
48534;SDS011;34323;52.022;5.686;2023-02-23T06:53:33;64.70;;;29.02;;
48534;SDS011;34323;52.022;5.686;2023-02-23T06:55:59;67.78;;;30.27;;
48534;SDS011;34323;52.022;5.686;2023-02-23T06:58:25;73.50;;;30.85;;
48534;SDS011;34323;52.022;5.686;2023-02-23T07:00:53;70.18;;;31.15;;
48534;SDS011;34323;52.022;5.686;2023-02-23T07:03:20;60.70;;;30.17;;
48534;SDS011;34323;52.022;5.686;2023-02-23T07:05:46;64.60;;;28.50;;
48534;SDS011;34323;52.022;5.686;2023-02-23T07:08:13;68.28;;;29.77;;
48534;SDS011;34323;52.022;5.686;2023-02-23T07:10:39;68.55;;;30.50;;
48534;SDS011;34323;52.022;5.686;2023-02-23T07:13:05;58.58;;;26.65;;
48534;SDS011;34323;52.022;5.686;2023-02-23T07:15:30;73.93;;;31.25;;
48534;SDS011;34323;52.022;5.686;2023-02-23T07:17:56;70.57;;;29.02;;
48534;SDS011;34323;52.022;5.686;2023-02-23T07:20:21;61.20;;;28.92;;
48534;SDS011;34323;52.022;5.686;2023-02-23T07:22:47;64.55;;;27.88;;
48534;SDS011;34323;52.022;5.686;2023-02-23T07:25:12;62.42;;;28.52;;
48534;SDS011;34323;52.022;5.686;2023-02-23T07:27:38;60.72;;;28.77;;
48534;SDS011;34323;52.022;5.686;2023-02-23T07:30:06;62.28;;;28.77;;
48534;SDS011;34323;52.022;5.686;2023-02-23T07:32:32;61.40;;;27.55;;
48534;SDS011;34323;52.022;5.686;2023-02-23T07:34:58;60.72;;;27.42;;
48534;SDS011;34323;52.022;5.686;2023-02-23T07:37:23;63.78;;;29.35;;
48534;SDS011;34323;52.022;5.686;2023-02-23T07:39:49;61.92;;;28.33;;
48534;SDS011;34323;52.022;5.686;2023-02-23T07:42:14;66.72;;;28.52;;
48534;SDS011;34323;52.022;5.686;2023-02-23T07:44:40;64.55;;;29.83;;
48534;SDS011;34323;52.022;5.686;2023-02-23T07:47:05;65.45;;;29.58;;
48534;SDS011;34323;52.022;5.686;2023-02-23T07:49:31;53.35;;;26.67;;
48534;SDS011;34323;52.022;5.686;2023-02-23T07:51:58;62.75;;;28.40;;
48534;SDS011;34323;52.022;5.686;2023-02-23T07:54:23;61.58;;;26.55;;
48534;SDS011;34323;52.022;5.686;2023-02-23T07:56:50;61.25;;;27.33;;
48534;SDS011;34323;52.022;5.686;2023-02-23T07:59:16;60.90;;;28.70;;
48534;SDS011;34323;52.022;5.686;2023-02-23T08:01:42;68.60;;;29.83;;
48534;SDS011;34323;52.022;5.686;2023-02-23T08:04:08;59.08;;;27.02;;
48534;SDS011;34323;52.022;5.686;2023-02-23T08:06:33;63.90;;;27.17;;
48534;SDS011;34323;52.022;5.686;2023-02-23T08:09:00;56.90;;;27.73;;
48534;SDS011;34323;52.022;5.686;2023-02-23T08:11:27;62.75;;;28.05;;
48534;SDS011;34323;52.022;5.686;2023-02-23T08:13:53;62.15;;;27.40;;
48534;SDS011;34323;52.022;5.686;2023-02-23T08:16:23;63.40;;;28.67;;
48534;SDS011;34323;52.022;5.686;2023-02-23T08:18:50;64.75;;;28.30;;
48534;SDS011;34323;52.022;5.686;2023-02-23T08:21:16;64.05;;;29.52;;
48534;SDS011;34323;52.022;5.686;2023-02-23T08:23:41;70.95;;;30.58;;
48534;SDS011;34323;52.022;5.686;2023-02-23T08:26:07;65.00;;;29.08;;
48534;SDS011;34323;52.022;5.686;2023-02-23T08:28:33;66.60;;;29.73;;
48534;SDS011;34323;52.022;5.686;2023-02-23T08:30:58;63.13;;;29.10;;
48534;SDS011;34323;52.022;5.686;2023-02-23T08:33:24;57.55;;;27.65;;
48534;SDS011;34323;52.022;5.686;2023-02-23T08:35:49;58.63;;;29.10;;
48534;SDS011;34323;52.022;5.686;2023-02-23T08:38:17;59.25;;;27.95;;
48534;SDS011;34323;52.022;5.686;2023-02-23T08:40:43;68.78;;;30.15;;
48534;SDS011;34323;52.022;5.686;2023-02-23T08:43:08;66.07;;;28.98;;
48534;SDS011;34323;52.022;5.686;2023-02-23T08:45:34;63.70;;;29.08;;
48534;SDS011;34323;52.022;5.686;2023-02-23T08:48:01;65.57;;;29.50;;
48534;SDS011;34323;52.022;5.686;2023-02-23T08:50:27;59.63;;;27.13;;
48534;SDS011;34323;52.022;5.686;2023-02-23T08:52:53;57.28;;;27.20;;
48534;SDS011;34323;52.022;5.686;2023-02-23T08:55:18;65.07;;;28.13;;
48534;SDS011;34323;52.022;5.686;2023-02-23T08:57:45;63.45;;;27.70;;
48534;SDS011;34323;52.022;5.686;2023-02-23T09:00:11;58.88;;;26.52;;
48534;SDS011;34323;52.022;5.686;2023-02-23T09:02:40;60.30;;;28.65;;
48534;SDS011;34323;52.022;5.686;2023-02-23T09:05:07;59.00;;;26.95;;
48534;SDS011;34323;52.022;5.686;2023-02-23T09:07:34;61.28;;;27.05;;
48534;SDS011;34323;52.022;5.686;2023-02-23T09:10:01;63.22;;;28.05;;
48534;SDS011;34323;52.022;5.686;2023-02-23T09:12:26;59.30;;;27.33;;
48534;SDS011;34323;52.022;5.686;2023-02-23T09:14:52;59.30;;;26.98;;
48534;SDS011;34323;52.022;5.686;2023-02-23T09:17:18;68.15;;;28.85;;
48534;SDS011;34323;52.022;5.686;2023-02-23T09:19:45;54.58;;;25.27;;
48534;SDS011;34323;52.022;5.686;2023-02-23T09:22:10;63.42;;;28.05;;
48534;SDS011;34323;52.022;5.686;2023-02-23T09:24:36;64.22;;;27.00;;
48534;SDS011;34323;52.022;5.686;2023-02-23T09:27:02;60.47;;;27.77;;
48534;SDS011;34323;52.022;5.686;2023-02-23T09:29:31;67.15;;;29.33;;
48534;SDS011;34323;52.022;5.686;2023-02-23T09:31:57;72.43;;;29.58;;
48534;SDS011;34323;52.022;5.686;2023-02-23T09:34:22;66.00;;;28.23;;
48534;SDS011;34323;52.022;5.686;2023-02-23T09:36:48;64.72;;;28.05;;
48534;SDS011;34323;52.022;5.686;2023-02-23T09:39:15;62.70;;;27.23;;
48534;SDS011;34323;52.022;5.686;2023-02-23T09:41:56;61.80;;;26.20;;
48534;SDS011;34323;52.022;5.686;2023-02-23T09:47:22;67.72;;;27.45;;
48534;SDS011;34323;52.022;5.686;2023-02-23T09:49:53;60.65;;;26.00;;
48534;SDS011;34323;52.022;5.686;2023-02-23T09:52:23;60.22;;;26.25;;
48534;SDS011;34323;52.022;5.686;2023-02-23T09:54:52;57.28;;;26.60;;
48534;SDS011;34323;52.022;5.686;2023-02-23T09:57:18;59.80;;;25.40;;
48534;SDS011;34323;52.022;5.686;2023-02-23T09:59:49;62.97;;;26.45;;
48534;SDS011;34323;52.022;5.686;2023-02-23T10:05:04;61.97;;;25.58;;
48534;SDS011;34323;52.022;5.686;2023-02-23T10:07:42;56.42;;;24.17;;
48534;SDS011;34323;52.022;5.686;2023-02-23T10:13:27;50.55;;;22.70;;
48534;SDS011;34323;52.022;5.686;2023-02-23T10:15:53;56.53;;;23.77;;
48534;SDS011;34323;52.022;5.686;2023-02-23T10:23:46;52.83;;;23.27;;
48534;SDS011;34323;52.022;5.686;2023-02-23T10:26:21;60.92;;;24.63;;
48534;SDS011;34323;52.022;5.686;2023-02-23T10:28:50;52.55;;;22.77;;
48534;SDS011;34323;52.022;5.686;2023-02-23T10:33:59;55.65;;;23.80;;
48534;SDS011;34323;52.022;5.686;2023-02-23T10:38:59;49.88;;;22.05;;
48534;SDS011;34323;52.022;5.686;2023-02-23T10:41:24;52.70;;;22.88;;
48534;SDS011;34323;52.022;5.686;2023-02-23T10:43:50;55.30;;;20.83;;
48534;SDS011;34323;52.022;5.686;2023-02-23T10:46:20;47.90;;;20.77;;
48534;SDS011;34323;52.022;5.686;2023-02-23T10:48:48;54.50;;;22.20;;
48534;SDS011;34323;52.022;5.686;2023-02-23T10:51:18;49.58;;;21.13;;
48534;SDS011;34323;52.022;5.686;2023-02-23T10:53:48;46.08;;;20.00;;
48534;SDS011;34323;52.022;5.686;2023-02-23T10:56:14;43.80;;;19.75;;
48534;SDS011;34323;52.022;5.686;2023-02-23T10:58:43;47.17;;;20.65;;
48534;SDS011;34323;52.022;5.686;2023-02-23T11:01:10;50.50;;;19.10;;
48534;SDS011;34323;52.022;5.686;2023-02-23T11:03:39;46.10;;;19.48;;
48534;SDS011;34323;52.022;5.686;2023-02-23T11:08:54;42.78;;;18.67;;
48534;SDS011;34323;52.022;5.686;2023-02-23T11:11:25;41.72;;;17.83;;
48534;SDS011;34323;52.022;5.686;2023-02-23T11:13:52;41.37;;;17.43;;
48534;SDS011;34323;52.022;5.686;2023-02-23T11:18:53;43.20;;;16.70;;
48534;SDS011;34323;52.022;5.686;2023-02-23T11:21:25;40.67;;;16.73;;
48534;SDS011;34323;52.022;5.686;2023-02-23T11:26:43;40.08;;;17.38;;
48534;SDS011;34323;52.022;5.686;2023-02-23T11:29:12;42.80;;;17.40;;
48534;SDS011;34323;52.022;5.686;2023-02-23T11:31:51;43.70;;;17.23;;
48534;SDS011;34323;52.022;5.686;2023-02-23T11:34:21;44.35;;;18.58;;
48534;SDS011;34323;52.022;5.686;2023-02-23T11:37:05;41.65;;;16.95;;
48534;SDS011;34323;52.022;5.686;2023-02-23T11:39:54;47.38;;;18.30;;
48534;SDS011;34323;52.022;5.686;2023-02-23T11:42:22;40.80;;;17.85;;
48534;SDS011;34323;52.022;5.686;2023-02-23T11:47:28;45.00;;;17.67;;
48534;SDS011;34323;52.022;5.686;2023-02-23T11:49:56;44.05;;;16.70;;
48534;SDS011;34323;52.022;5.686;2023-02-23T11:52:22;40.22;;;15.82;;
48534;SDS011;34323;52.022;5.686;2023-02-23T11:57:32;45.13;;;16.25;;
48534;SDS011;34323;52.022;5.686;2023-02-23T11:59:59;42.13;;;16.77;;
48534;SDS011;34323;52.022;5.686;2023-02-23T12:02:32;37.30;;;15.75;;
48534;SDS011;34323;52.022;5.686;2023-02-23T12:05:19;32.97;;;15.50;;
48534;SDS011;34323;52.022;5.686;2023-02-23T12:07:52;34.60;;;16.20;;
48534;SDS011;34323;52.022;5.686;2023-02-23T12:10:46;31.20;;;14.38;;
48534;SDS011;34323;52.022;5.686;2023-02-23T12:16:40;36.33;;;14.95;;
48534;SDS011;34323;52.022;5.686;2023-02-23T12:19:26;28.27;;;13.20;;
48534;SDS011;34323;52.022;5.686;2023-02-23T12:27:03;32.70;;;14.68;;
48534;SDS011;34323;52.022;5.686;2023-02-23T12:29:55;28.33;;;13.57;;
48534;SDS011;34323;52.022;5.686;2023-02-23T12:32:53;26.25;;;11.05;;
48534;SDS011;34323;52.022;5.686;2023-02-23T12:35:34;25.98;;;12.00;;
48534;SDS011;34323;52.022;5.686;2023-02-23T12:40:38;21.98;;;9.32;;
48534;SDS011;34323;52.022;5.686;2023-02-23T12:43:18;20.77;;;9.90;;
48534;SDS011;34323;52.022;5.686;2023-02-23T12:45:55;23.40;;;9.80;;
48534;SDS011;34323;52.022;5.686;2023-02-23T12:48:56;22.80;;;9.48;;
48534;SDS011;34323;52.022;5.686;2023-02-23T12:54:23;21.88;;;9.50;;
48534;SDS011;34323;52.022;5.686;2023-02-23T12:56:59;20.45;;;9.02;;
48534;SDS011;34323;52.022;5.686;2023-02-23T13:02:28;25.20;;;9.85;;
48534;SDS011;34323;52.022;5.686;2023-02-23T13:05:15;25.52;;;9.13;;
48534;SDS011;34323;52.022;5.686;2023-02-23T13:10:30;23.50;;;9.75;;
48534;SDS011;34323;52.022;5.686;2023-02-23T13:13:40;22.40;;;10.82;;
48534;SDS011;34323;52.022;5.686;2023-02-23T13:19:03;23.73;;;8.80;;
48534;SDS011;34323;52.022;5.686;2023-02-23T13:21:34;20.85;;;8.80;;
48534;SDS011;34323;52.022;5.686;2023-02-23T13:27:14;21.30;;;9.63;;
48534;SDS011;34323;52.022;5.686;2023-02-23T13:29:49;19.33;;;9.00;;
48534;SDS011;34323;52.022;5.686;2023-02-23T13:32:26;20.05;;;9.88;;
48534;SDS011;34323;52.022;5.686;2023-02-23T13:34:56;19.60;;;9.85;;
48534;SDS011;34323;52.022;5.686;2023-02-23T13:37:27;17.00;;;8.48;;
48534;SDS011;34323;52.022;5.686;2023-02-23T13:46:00;19.33;;;7.82;;
48534;SDS011;34323;52.022;5.686;2023-02-23T13:51:44;16.65;;;8.10;;
48534;SDS011;34323;52.022;5.686;2023-02-23T13:56:47;15.75;;;7.88;;
48534;SDS011;34323;52.022;5.686;2023-02-23T13:59:20;16.80;;;7.65;;
48534;SDS011;34323;52.022;5.686;2023-02-23T14:01:48;19.92;;;8.93;;
48534;SDS011;34323;52.022;5.686;2023-02-23T14:04:21;18.08;;;7.50;;
48534;SDS011;34323;52.022;5.686;2023-02-23T14:18:03;16.73;;;7.40;;
48534;SDS011;34323;52.022;5.686;2023-02-23T14:25:49;19.63;;;9.38;;
48534;SDS011;34323;52.022;5.686;2023-02-23T14:28:32;18.23;;;9.40;;
48534;SDS011;34323;52.022;5.686;2023-02-23T14:31:22;20.48;;;10.02;;
48534;SDS011;34323;52.022;5.686;2023-02-23T14:38:45;18.73;;;8.75;;
48534;SDS011;34323;52.022;5.686;2023-02-23T14:41:14;27.13;;;10.55;;
48534;SDS011;34323;52.022;5.686;2023-02-23T14:43:46;20.17;;;9.43;;
48534;SDS011;34323;52.022;5.686;2023-02-23T14:46:19;21.17;;;9.10;;
48534;SDS011;34323;52.022;5.686;2023-02-23T14:49:00;23.10;;;9.75;;
48534;SDS011;34323;52.022;5.686;2023-02-23T14:54:13;21.45;;;9.02;;
48534;SDS011;34323;52.022;5.686;2023-02-23T14:57:05;19.33;;;8.75;;
48534;SDS011;34323;52.022;5.686;2023-02-23T14:59:42;19.70;;;7.93;;
48534;SDS011;34323;52.022;5.686;2023-02-23T15:02:09;20.13;;;8.77;;
48534;SDS011;34323;52.022;5.686;2023-02-23T15:04:42;17.65;;;8.77;;
48534;SDS011;34323;52.022;5.686;2023-02-23T15:07:13;18.80;;;8.43;;
48534;SDS011;34323;52.022;5.686;2023-02-23T15:09:42;17.88;;;7.55;;
48534;SDS011;34323;52.022;5.686;2023-02-23T15:12:16;19.33;;;8.15;;
48534;SDS011;34323;52.022;5.686;2023-02-23T15:14:47;20.35;;;8.30;;
48534;SDS011;34323;52.022;5.686;2023-02-23T15:17:19;19.17;;;8.32;;
48534;SDS011;34323;52.022;5.686;2023-02-23T15:19:49;21.58;;;8.90;;
48534;SDS011;34323;52.022;5.686;2023-02-23T15:22:33;17.23;;;8.77;;
48534;SDS011;34323;52.022;5.686;2023-02-23T15:25:05;22.40;;;8.52;;
48534;SDS011;34323;52.022;5.686;2023-02-23T15:27:42;18.02;;;8.52;;
48534;SDS011;34323;52.022;5.686;2023-02-23T15:35:41;24.63;;;8.95;;
48534;SDS011;34323;52.022;5.686;2023-02-23T15:38:25;22.88;;;9.52;;
48534;SDS011;34323;52.022;5.686;2023-02-23T15:40:55;19.92;;;10.02;;
48534;SDS011;34323;52.022;5.686;2023-02-23T15:43:25;20.35;;;8.18;;
48534;SDS011;34323;52.022;5.686;2023-02-23T15:45:53;23.83;;;9.70;;
48534;SDS011;34323;52.022;5.686;2023-02-23T15:48:23;23.00;;;9.75;;
48534;SDS011;34323;52.022;5.686;2023-02-23T15:50:53;25.15;;;10.32;;
48534;SDS011;34323;52.022;5.686;2023-02-23T15:53:23;27.05;;;10.85;;
48534;SDS011;34323;52.022;5.686;2023-02-23T15:55:54;26.80;;;10.52;;
48534;SDS011;34323;52.022;5.686;2023-02-23T15:58:28;30.08;;;11.88;;
48534;SDS011;34323;52.022;5.686;2023-02-23T16:00:58;26.67;;;10.82;;
48534;SDS011;34323;52.022;5.686;2023-02-23T16:03:34;35.38;;;12.65;;
48534;SDS011;34323;52.022;5.686;2023-02-23T16:06:05;35.90;;;12.20;;
48534;SDS011;34323;52.022;5.686;2023-02-23T16:08:46;37.53;;;13.52;;
48534;SDS011;34323;52.022;5.686;2023-02-23T16:11:24;39.47;;;15.00;;
48534;SDS011;34323;52.022;5.686;2023-02-23T16:13:51;39.53;;;15.00;;
48534;SDS011;34323;52.022;5.686;2023-02-23T16:16:18;36.20;;;13.30;;
48534;SDS011;34323;52.022;5.686;2023-02-23T16:18:53;43.97;;;16.15;;
48534;SDS011;34323;52.022;5.686;2023-02-23T16:21:25;40.70;;;14.30;;
48534;SDS011;34323;52.022;5.686;2023-02-23T16:23:58;42.47;;;16.23;;
48534;SDS011;34323;52.022;5.686;2023-02-23T16:29:06;53.00;;;17.25;;
48534;SDS011;34323;52.022;5.686;2023-02-23T16:36:49;48.65;;;18.55;;
48534;SDS011;34323;52.022;5.686;2023-02-23T16:39:18;47.00;;;16.58;;
48534;SDS011;34323;52.022;5.686;2023-02-23T16:41:44;37.33;;;12.68;;
48534;SDS011;34323;52.022;5.686;2023-02-23T16:44:12;19.38;;;6.72;;
48534;SDS011;34323;52.022;5.686;2023-02-23T16:46:53;13.07;;;5.35;;
48534;SDS011;34323;52.022;5.686;2023-02-23T16:49:29;19.83;;;5.72;;
48534;SDS011;34323;52.022;5.686;2023-02-23T16:51:55;12.75;;;4.35;;
48534;SDS011;34323;52.022;5.686;2023-02-23T16:54:21;15.23;;;3.70;;
48534;SDS011;34323;52.022;5.686;2023-02-23T16:56:46;13.57;;;4.30;;